createdAt,value
2023-05-10T00:01:45.847Z,20.33
2023-05-10T00:04:14.090Z,19.95
2023-05-10T00:06:42.167Z,19.63
2023-05-10T00:09:10.448Z,20.40
2023-05-10T00:11:38.712Z,20.45
2023-05-10T00:14:06.849Z,22.45
2023-05-10T00:16:34.907Z,25.23
2023-05-10T00:19:03.123Z,22.98
2023-05-10T00:21:31.192Z,21.65
2023-05-10T00:23:59.253Z,19.45
2023-05-10T00:26:27.274Z,22.42
2023-05-10T00:28:58.040Z,20.40
2023-05-10T00:31:26.831Z,23.35
2023-05-10T00:33:54.921Z,20.50
2023-05-10T00:36:22.874Z,21.73
2023-05-10T00:38:51.562Z,21.42
2023-05-10T00:41:44.820Z,22.95
2023-05-10T00:44:13.120Z,24.17
2023-05-10T00:46:42.195Z,25.13
2023-05-10T00:49:10.262Z,24.00
2023-05-10T00:51:38.631Z,28.10
2023-05-10T00:54:07.843Z,23.60
2023-05-10T00:56:35.946Z,21.17
2023-05-10T00:59:04.514Z,23.95
2023-05-10T01:01:32.767Z,25.00
2023-05-10T01:04:01.281Z,26.63
2023-05-10T01:06:29.562Z,24.83
2023-05-10T01:08:57.827Z,22.67
2023-05-10T01:11:26.506Z,23.58
2023-05-10T01:13:58.147Z,22.25
2023-05-10T01:16:27.610Z,24.00
2023-05-10T01:18:55.789Z,21.98
2023-05-10T01:21:52.174Z,24.88
2023-05-10T01:24:26.069Z,26.10
2023-05-10T01:27:31.373Z,24.73
2023-05-10T01:30:18.365Z,25.45
2023-05-10T01:33:00.081Z,23.58
2023-05-10T01:36:07.716Z,24.08
2023-05-10T01:38:54.232Z,24.63
2023-05-10T01:41:56.034Z,23.20
2023-05-10T01:44:57.481Z,24.50
2023-05-10T01:47:28.453Z,20.77
2023-05-10T01:49:58.411Z,20.77
2023-05-10T01:52:37.621Z,22.17
2023-05-10T01:55:14.461Z,20.20
2023-05-10T01:57:45.016Z,22.05
2023-05-10T02:00:16.026Z,23.55
2023-05-10T02:02:48.003Z,23.17
2023-05-10T02:05:17.466Z,24.55
2023-05-10T02:07:46.598Z,25.60
2023-05-10T02:10:15.649Z,22.88
2023-05-10T02:12:47.534Z,27.83
2023-05-10T02:15:22.066Z,24.95
2023-05-10T02:17:50.975Z,24.13
2023-05-10T02:20:21.502Z,26.05
2023-05-10T02:22:52.674Z,27.35
2023-05-10T02:25:22.962Z,26.02
2023-05-10T02:27:52.774Z,29.40
2023-05-10T02:30:21.799Z,26.20
2023-05-10T02:33:10.693Z,26.42
2023-05-10T02:35:40.067Z,25.08
2023-05-10T02:38:11.474Z,26.10
2023-05-10T02:40:41.998Z,26.90
2023-05-10T02:43:14.399Z,23.33
2023-05-10T02:45:44.280Z,25.95
2023-05-10T02:48:12.555Z,26.88
2023-05-10T02:50:47.765Z,25.05
2023-05-10T02:53:24.551Z,26.25
2023-05-10T02:55:56.088Z,25.33
2023-05-10T02:58:24.356Z,25.45
2023-05-10T03:00:52.767Z,27.80
2023-05-10T03:03:21.384Z,23.73
2023-05-10T03:05:51.633Z,26.17
2023-05-10T03:08:20.251Z,23.85
2023-05-10T03:11:13.394Z,21.42
2023-05-10T03:14:09.390Z,25.42
2023-05-10T03:16:52.240Z,22.40
2023-05-10T03:19:33.647Z,27.47
2023-05-10T03:22:08.109Z,21.25
2023-05-10T03:24:40.626Z,24.13
2023-05-10T03:27:09.750Z,22.77
2023-05-10T03:29:39.387Z,23.20
2023-05-10T03:32:07.688Z,26.30
2023-05-10T03:34:42.342Z,22.65
2023-05-10T03:37:11.039Z,20.42
2023-05-10T03:39:39.448Z,25.60
2023-05-10T03:42:12.958Z,23.23
2023-05-10T03:44:41.441Z,23.70
2023-05-10T03:47:10.693Z,22.55
2023-05-10T03:49:38.683Z,23.25
2023-05-10T03:52:07.679Z,23.23
2023-05-10T03:54:36.705Z,21.83
2023-05-10T03:57:05.401Z,24.13
2023-05-10T03:59:34.118Z,21.23
2023-05-10T04:02:02.360Z,30.13
2023-05-10T04:04:32.722Z,20.85
2023-05-10T04:07:00.756Z,21.90
2023-05-10T04:09:28.807Z,21.42
2023-05-10T04:11:57.532Z,25.13
2023-05-10T04:14:28.103Z,22.23
2023-05-10T04:16:56.570Z,25.17
2023-05-10T04:19:25.294Z,23.30
2023-05-10T04:21:53.309Z,24.05
2023-05-10T04:24:21.415Z,24.98
2023-05-10T04:26:49.411Z,21.98
2023-05-10T04:29:17.730Z,21.58
2023-05-10T04:31:45.928Z,25.23
2023-05-10T04:34:14.015Z,21.13
2023-05-10T04:36:42.254Z,22.23
2023-05-10T04:39:11.140Z,20.10
2023-05-10T04:41:39.501Z,22.30
2023-05-10T04:44:07.666Z,23.90
2023-05-10T04:46:35.925Z,22.73
2023-05-10T04:49:03.992Z,20.85
2023-05-10T04:51:32.985Z,24.33
2023-05-10T04:54:06.507Z,20.88
2023-05-10T04:56:35.069Z,21.77
2023-05-10T04:59:04.165Z,21.30
2023-05-10T05:01:32.369Z,26.25
2023-05-10T05:04:00.792Z,22.88
2023-05-10T05:06:29.389Z,23.00
2023-05-10T05:09:01.283Z,21.48
2023-05-10T05:11:29.525Z,21.80
2023-05-10T05:14:00.179Z,19.13
2023-05-10T05:16:28.484Z,19.20
2023-05-10T05:18:57.079Z,19.35
2023-05-10T05:21:26.473Z,22.77
2023-05-10T05:23:54.512Z,19.35
2023-05-10T05:26:22.928Z,17.55
2023-05-10T05:28:54.849Z,23.73
2023-05-10T05:31:23.534Z,25.45
2023-05-10T05:33:51.673Z,20.15
2023-05-10T05:36:20.744Z,21.27
2023-05-10T05:38:48.840Z,21.38
2023-05-10T05:41:17.817Z,26.23
2023-05-10T05:43:46.290Z,20.15
2023-05-10T05:46:14.882Z,27.17
2023-05-10T05:48:43.151Z,22.88
2023-05-10T05:51:11.888Z,23.58
2023-05-10T05:53:40.998Z,23.42
2023-05-10T05:56:10.458Z,22.85
2023-05-10T05:58:38.785Z,27.33
2023-05-10T06:01:07.736Z,27.88
2023-05-10T06:03:36.599Z,26.30
2023-05-10T06:06:05.651Z,20.95
2023-05-10T06:08:35.034Z,22.02
2023-05-10T06:11:05.492Z,25.25
2023-05-10T06:13:36.362Z,23.15
2023-05-10T06:16:05.316Z,21.00
2023-05-10T06:18:33.801Z,25.30
2023-05-10T06:21:02.644Z,24.70
2023-05-10T06:23:31.168Z,28.13
2023-05-10T06:25:59.646Z,25.27
2023-05-10T06:28:28.300Z,24.50
2023-05-10T06:30:56.879Z,27.70
2023-05-10T06:33:25.000Z,21.75
2023-05-10T06:35:54.233Z,26.25
2023-05-10T06:38:23.136Z,26.00
2023-05-10T06:40:51.713Z,21.50
2023-05-10T06:43:20.237Z,21.77
2023-05-10T06:45:49.598Z,25.70
2023-05-10T06:48:18.176Z,25.58
2023-05-10T06:50:46.824Z,19.75
2023-05-10T06:53:15.437Z,21.98
2023-05-10T06:55:44.582Z,24.80
2023-05-10T06:58:13.759Z,21.90
2023-05-10T07:00:45.165Z,18.70
2023-05-10T07:03:13.856Z,21.40
2023-05-10T07:05:42.714Z,21.70
2023-05-10T07:08:11.551Z,21.65
2023-05-10T07:10:40.858Z,21.20
2023-05-10T07:13:09.123Z,18.90
2023-05-10T07:15:37.482Z,22.33
2023-05-10T07:18:07.655Z,22.10
2023-05-10T07:20:36.042Z,17.05
2023-05-10T07:23:04.689Z,19.45
2023-05-10T07:25:33.318Z,18.77
2023-05-10T07:28:01.473Z,18.77
2023-05-10T07:30:30.872Z,18.38
2023-05-10T07:33:00.361Z,17.70
2023-05-10T07:35:28.503Z,14.40
2023-05-10T07:37:57.228Z,16.58
2023-05-10T07:40:27.348Z,18.65
2023-05-10T07:42:56.083Z,15.98
2023-05-10T07:45:24.697Z,17.23
2023-05-10T07:47:53.371Z,16.88
2023-05-10T07:50:22.631Z,18.58
2023-05-10T07:52:51.385Z,22.02
2023-05-10T07:55:22.330Z,20.55
2023-05-10T07:57:50.491Z,16.23
2023-05-10T08:00:20.460Z,20.73
2023-05-10T08:02:49.086Z,27.15
2023-05-10T08:05:18.254Z,18.30
2023-05-10T08:07:47.525Z,19.88
2023-05-10T08:10:15.778Z,19.63
2023-05-10T08:12:44.690Z,19.92
2023-05-10T08:15:37.759Z,19.02
2023-05-10T08:18:07.071Z,18.58
2023-05-10T08:20:35.999Z,20.50
2023-05-10T08:23:04.439Z,18.13
2023-05-10T08:25:33.383Z,18.35
2023-05-10T08:28:02.188Z,20.85
2023-05-10T08:30:31.144Z,16.15
2023-05-10T08:32:59.844Z,19.52
2023-05-10T08:35:28.514Z,23.52
2023-05-10T08:37:57.015Z,19.08
2023-05-10T08:40:27.755Z,21.92
2023-05-10T08:43:16.576Z,20.27
2023-05-10T08:45:48.161Z,21.52
2023-05-10T08:48:18.207Z,23.77
2023-05-10T08:50:47.923Z,21.45
2023-05-10T08:53:19.796Z,24.83
2023-05-10T08:55:49.687Z,24.83
2023-05-10T08:58:18.323Z,22.00
2023-05-10T09:00:48.625Z,25.77
2023-05-10T09:03:18.471Z,25.73
2023-05-10T09:05:47.764Z,24.17
2023-05-10T09:08:17.662Z,24.05
2023-05-10T09:10:48.611Z,23.02
2023-05-10T09:13:16.935Z,23.80
2023-05-10T09:15:46.846Z,23.63
2023-05-10T09:18:15.701Z,24.55
2023-05-10T09:20:44.746Z,24.67
2023-05-10T09:23:13.070Z,26.35
2023-05-10T09:25:43.141Z,25.60
2023-05-10T09:28:12.370Z,28.55
2023-05-10T09:30:41.471Z,26.42
2023-05-10T09:33:10.374Z,25.55
2023-05-10T09:35:41.489Z,26.38
2023-05-10T09:38:11.530Z,23.90
2023-05-10T09:40:40.221Z,30.52
2023-05-10T09:43:10.160Z,24.88
2023-05-10T09:45:39.415Z,26.42
2023-05-10T09:48:08.589Z,25.38
2023-05-10T09:50:37.840Z,22.90
2023-05-10T09:53:06.531Z,24.48
2023-05-10T09:55:47.088Z,26.17
2023-05-10T09:58:16.073Z,25.88
2023-05-10T10:00:48.533Z,22.58
2023-05-10T10:03:21.871Z,24.50
2023-05-10T10:05:50.665Z,22.48
2023-05-10T10:08:18.965Z,24.58
2023-05-10T10:10:48.171Z,24.13
2023-05-10T10:13:17.053Z,21.58
2023-05-10T10:15:47.118Z,20.80
2023-05-10T10:18:16.744Z,20.80
2023-05-10T10:20:44.990Z,19.33
2023-05-10T10:23:15.030Z,19.02
2023-05-10T10:25:46.266Z,17.48
2023-05-10T10:28:32.157Z,13.52
2023-05-10T10:31:16.967Z,14.35
2023-05-10T10:34:18.597Z,15.50
2023-05-10T10:36:48.520Z,12.68
2023-05-10T10:39:17.624Z,13.10
2023-05-10T10:41:58.557Z,12.25
2023-05-10T10:44:40.428Z,12.05
2023-05-10T10:47:19.901Z,12.82
2023-05-10T10:50:05.843Z,15.73
2023-05-10T10:52:38.864Z,11.25
2023-05-10T10:55:07.978Z,13.07
2023-05-10T10:57:47.275Z,14.15
2023-05-10T11:00:28.991Z,11.93
2023-05-10T11:03:15.881Z,13.30
2023-05-10T11:05:46.112Z,12.10
2023-05-10T11:08:31.944Z,10.65
2023-05-10T11:11:00.906Z,11.20
2023-05-10T11:13:30.585Z,12.63
2023-05-10T11:16:00.324Z,10.93
2023-05-10T11:18:32.599Z,9.65
2023-05-10T11:21:11.608Z,11.27
2023-05-10T11:23:49.602Z,9.00
2023-05-10T11:26:18.541Z,10.55
2023-05-10T11:28:51.587Z,13.55
2023-05-10T11:31:21.174Z,8.73
2023-05-10T11:33:53.075Z,10.85
2023-05-10T11:36:29.547Z,10.70
2023-05-10T11:38:58.626Z,9.23
2023-05-10T11:41:29.327Z,10.50
2023-05-10T11:44:00.078Z,9.82
2023-05-10T11:46:29.703Z,8.57
2023-05-10T11:49:02.969Z,8.18
2023-05-10T11:51:36.803Z,6.82
2023-05-10T11:54:10.552Z,8.27
2023-05-10T11:56:40.710Z,7.72
2023-05-10T11:59:09.862Z,7.72
2023-05-10T12:01:39.128Z,5.82
2023-05-10T12:04:07.807Z,6.82
2023-05-10T12:06:41.916Z,6.20
2023-05-10T12:09:10.739Z,6.85
2023-05-10T12:11:44.373Z,7.45
2023-05-10T12:14:13.517Z,9.05
2023-05-10T12:16:42.613Z,6.88
2023-05-10T12:19:11.976Z,6.85
2023-05-10T12:21:42.513Z,7.57
2023-05-10T12:24:11.691Z,6.15
2023-05-10T12:26:41.157Z,6.25
2023-05-10T12:29:15.257Z,6.35
2023-05-10T12:31:55.590Z,6.75
2023-05-10T12:34:33.997Z,6.85
2023-05-10T12:37:04.056Z,6.05
2023-05-10T12:39:47.431Z,4.80
2023-05-10T12:42:15.564Z,4.22
2023-05-10T12:44:44.674Z,4.97
2023-05-10T12:47:13.380Z,3.90
2023-05-10T12:49:41.559Z,3.67
2023-05-10T12:52:10.838Z,3.72
2023-05-10T12:54:39.330Z,4.68
2023-05-10T12:57:07.861Z,4.47
2023-05-10T12:59:38.173Z,3.95
2023-05-10T13:02:07.096Z,4.03
2023-05-10T13:04:36.020Z,5.88
2023-05-10T13:07:04.253Z,3.80
2023-05-10T13:09:33.436Z,5.60
2023-05-10T13:12:02.308Z,4.75
2023-05-10T13:14:31.216Z,5.95
2023-05-10T13:16:59.848Z,4.03
2023-05-10T13:19:28.693Z,4.55
2023-05-10T13:21:57.264Z,5.60
2023-05-10T13:24:25.804Z,3.83
2023-05-10T13:26:54.632Z,5.38
2023-05-10T13:29:23.623Z,5.05
2023-05-10T13:31:52.277Z,6.13
2023-05-10T13:34:21.708Z,5.45
2023-05-10T13:36:50.742Z,5.22
2023-05-10T13:39:19.145Z,4.65
2023-05-10T13:41:48.226Z,4.50
2023-05-10T13:44:17.007Z,4.00
2023-05-10T13:46:45.708Z,6.43
2023-05-10T13:49:14.327Z,4.40
2023-05-10T13:51:43.479Z,7.00
2023-05-10T13:54:13.551Z,5.57
2023-05-10T13:56:45.114Z,4.90
2023-05-10T13:59:13.733Z,6.90
2023-05-10T14:01:42.433Z,6.13
2023-05-10T14:04:11.751Z,7.85
2023-05-10T14:06:40.660Z,7.72
2023-05-10T14:09:09.204Z,9.25
2023-05-10T14:11:37.679Z,9.77
2023-05-10T14:14:06.619Z,8.45
2023-05-10T14:16:34.803Z,9.77
2023-05-10T14:19:04.236Z,9.07
2023-05-10T14:21:33.453Z,9.45
2023-05-10T14:24:01.808Z,8.30
2023-05-10T14:26:30.326Z,6.88
2023-05-10T14:29:00.572Z,8.45
2023-05-10T14:31:31.576Z,7.88
2023-05-10T14:34:00.601Z,7.97
2023-05-10T14:36:30.477Z,6.78
2023-05-10T14:38:59.167Z,6.85
2023-05-10T14:41:27.897Z,6.90
2023-05-10T14:43:56.622Z,8.40
2023-05-10T14:46:25.877Z,11.32
2023-05-10T14:48:54.902Z,7.75
2023-05-10T14:51:23.664Z,6.70
2023-05-10T14:53:52.368Z,5.53
2023-05-10T14:56:22.469Z,7.28
2023-05-10T14:58:51.919Z,5.82
2023-05-10T15:01:21.032Z,7.50
2023-05-10T15:03:50.547Z,9.88
2023-05-10T15:06:28.065Z,7.43
2023-05-10T15:08:56.306Z,7.85
2023-05-10T15:11:24.523Z,5.80
2023-05-10T15:13:53.762Z,6.03
2023-05-10T15:16:22.070Z,7.95
2023-05-10T15:18:50.697Z,8.02
2023-05-10T15:21:19.542Z,9.07
2023-05-10T15:23:48.043Z,14.88
2023-05-10T15:26:16.520Z,7.03
2023-05-10T15:28:45.498Z,6.72
2023-05-10T15:31:13.478Z,7.78
2023-05-10T15:33:41.609Z,7.43
2023-05-10T15:36:10.773Z,7.95
2023-05-10T15:38:40.177Z,6.97
2023-05-10T15:41:09.020Z,7.65
2023-05-10T15:43:37.676Z,7.80
2023-05-10T15:46:07.386Z,9.32
2023-05-10T15:48:35.935Z,6.85
2023-05-10T15:51:04.220Z,9.52
2023-05-10T15:53:33.101Z,9.18
2023-05-10T15:56:01.926Z,9.05
2023-05-10T15:58:30.638Z,4.57
2023-05-10T16:00:59.728Z,4.35
2023-05-10T16:03:28.410Z,7.78
2023-05-10T16:05:56.951Z,5.90
2023-05-10T16:08:25.996Z,3.97
2023-05-10T16:10:54.237Z,6.18
2023-05-10T16:13:22.744Z,5.55
2023-05-10T16:15:51.996Z,4.65
2023-05-10T16:18:20.685Z,6.68
2023-05-10T16:20:49.272Z,5.60
2023-05-10T16:23:18.114Z,7.65
2023-05-10T16:25:47.064Z,6.13
2023-05-10T16:28:16.226Z,7.60
2023-05-10T16:30:44.511Z,6.22
2023-05-10T16:33:13.028Z,6.40
2023-05-10T16:35:41.420Z,5.43
2023-05-10T16:38:09.569Z,4.72
2023-05-10T16:40:38.673Z,7.13
2023-05-10T16:43:08.157Z,6.43
2023-05-10T16:45:36.982Z,5.28
2023-05-10T16:48:05.761Z,5.82
2023-05-10T16:50:35.115Z,16.73
2023-05-10T16:53:03.826Z,7.03
2023-05-10T16:55:32.476Z,5.07
2023-05-10T16:58:03.019Z,5.90
2023-05-10T17:00:31.586Z,4.10
2023-05-10T17:03:00.796Z,7.97
2023-05-10T17:05:29.892Z,6.55
2023-05-10T17:07:58.521Z,5.90
2023-05-10T17:10:27.631Z,5.90
2023-05-10T17:12:55.634Z,4.03
2023-05-10T17:15:23.835Z,9.35
2023-05-10T17:17:52.843Z,5.60
2023-05-10T17:20:21.451Z,4.88
2023-05-10T17:22:49.760Z,7.70
2023-05-10T17:25:18.323Z,5.05
2023-05-10T17:27:47.062Z,4.57
2023-05-10T17:30:15.808Z,7.60
2023-05-10T17:32:44.622Z,5.13
2023-05-10T17:35:13.183Z,5.88
2023-05-10T17:37:41.847Z,6.88
2023-05-10T17:40:11.528Z,6.93
2023-05-10T17:42:40.191Z,6.57
2023-05-10T17:45:09.038Z,4.78
2023-05-10T17:47:38.170Z,6.95
2023-05-10T17:50:07.443Z,6.63
2023-05-10T17:52:35.994Z,11.38
2023-05-10T17:55:04.934Z,5.85
2023-05-10T17:57:34.001Z,8.27
2023-05-10T18:00:05.264Z,6.97
2023-05-10T18:02:37.008Z,6.10
2023-05-10T18:05:06.559Z,5.97
2023-05-10T18:07:36.243Z,8.02
2023-05-10T18:10:05.111Z,7.45
2023-05-10T18:12:33.436Z,5.85
2023-05-10T18:15:01.726Z,8.45
2023-05-10T18:17:33.596Z,7.45
2023-05-10T18:20:02.538Z,5.40
2023-05-10T18:22:32.608Z,6.88
2023-05-10T18:25:01.567Z,8.30
2023-05-10T18:27:31.041Z,7.35
2023-05-10T18:30:00.012Z,9.10
2023-05-10T18:32:28.686Z,9.30
2023-05-10T18:34:58.508Z,8.82
2023-05-10T18:37:27.586Z,10.90
2023-05-10T18:39:56.459Z,8.02
2023-05-10T18:42:24.559Z,11.60
2023-05-10T18:44:53.578Z,10.73
2023-05-10T18:47:22.055Z,10.65
2023-05-10T18:49:50.304Z,12.77
2023-05-10T18:52:19.344Z,13.43
2023-05-10T18:54:48.520Z,12.68
2023-05-10T18:57:17.969Z,12.57
2023-05-10T18:59:45.955Z,17.15
2023-05-10T19:02:14.614Z,13.98
2023-05-10T19:04:43.000Z,10.80
2023-05-10T19:07:12.262Z,12.80
2023-05-10T19:09:40.751Z,11.07
2023-05-10T19:12:09.350Z,11.60
2023-05-10T19:14:38.011Z,13.38
2023-05-10T19:17:07.385Z,14.07
2023-05-10T19:19:37.366Z,13.93
2023-05-10T19:22:05.836Z,12.57
2023-05-10T19:24:35.216Z,10.88
2023-05-10T19:27:04.288Z,12.95
2023-05-10T19:29:32.766Z,15.20
2023-05-10T19:32:00.991Z,11.43
2023-05-10T19:39:47.643Z,11.65
2023-05-10T19:42:17.996Z,13.27
2023-05-10T19:44:46.203Z,12.43
2023-05-10T19:47:14.700Z,13.27
2023-05-10T19:49:43.394Z,13.05
2023-05-10T19:52:12.374Z,13.57
2023-05-10T19:54:40.496Z,16.23
2023-05-10T19:57:09.620Z,16.55
2023-05-10T19:59:39.385Z,11.43
2023-05-10T20:02:08.006Z,11.55
2023-05-10T20:04:37.138Z,9.32
2023-05-10T20:07:05.772Z,13.65
2023-05-10T20:09:34.966Z,11.90
2023-05-10T20:12:03.055Z,9.90
2023-05-10T20:14:31.996Z,11.55
2023-05-10T20:17:06.153Z,12.85
2023-05-10T20:19:35.376Z,12.68
2023-05-10T20:22:05.559Z,10.00
2023-05-10T20:24:34.451Z,9.98
2023-05-10T20:27:02.796Z,11.65
2023-05-10T20:29:35.573Z,9.70
2023-05-10T20:32:04.112Z,9.77
2023-05-10T20:34:35.671Z,10.35
2023-05-10T20:37:03.873Z,9.23
2023-05-10T20:39:32.356Z,7.22
2023-05-10T20:42:01.128Z,12.23
2023-05-10T20:44:29.716Z,8.45
2023-05-10T20:46:57.988Z,10.23
2023-05-10T20:49:28.145Z,11.07
2023-05-10T20:51:56.805Z,11.65
2023-05-10T20:54:25.795Z,8.48
2023-05-10T20:56:54.908Z,7.45
2023-05-10T20:59:24.146Z,8.07
2023-05-10T21:01:52.672Z,6.88
2023-05-10T21:04:21.368Z,10.02
2023-05-10T21:06:50.149Z,9.60
2023-05-10T21:09:18.735Z,10.00
2023-05-10T21:11:47.638Z,11.20
2023-05-10T21:14:16.073Z,10.18
2023-05-10T21:16:45.230Z,9.68
2023-05-10T21:19:13.877Z,8.50
2023-05-10T21:21:41.967Z,9.13
2023-05-10T21:24:11.104Z,12.45
2023-05-10T21:26:40.102Z,14.27
2023-05-10T21:29:09.288Z,9.90
2023-05-10T21:31:37.769Z,9.82
2023-05-10T21:34:06.893Z,10.30
2023-05-10T21:36:35.340Z,12.73
2023-05-10T21:39:04.604Z,9.77
2023-05-10T21:41:32.993Z,10.68
2023-05-10T21:44:02.001Z,12.55
2023-05-10T21:46:30.712Z,12.05
2023-05-10T21:48:59.242Z,10.27
2023-05-10T21:51:29.274Z,11.68
2023-05-10T21:53:57.927Z,11.75
2023-05-10T21:56:26.563Z,9.85
2023-05-10T21:58:54.936Z,10.23
2023-05-10T22:01:23.776Z,12.10
2023-05-10T22:03:52.145Z,11.45
2023-05-10T22:06:20.958Z,15.02
2023-05-10T22:08:49.240Z,17.15
2023-05-10T22:11:17.856Z,11.07
2023-05-10T22:13:46.791Z,13.07
2023-05-10T22:16:15.463Z,13.60
2023-05-10T22:18:44.298Z,12.27
2023-05-10T22:21:12.404Z,12.95
2023-05-10T22:23:41.472Z,12.40
2023-05-10T22:26:09.796Z,11.43
2023-05-10T22:28:38.746Z,12.45
2023-05-10T22:31:11.701Z,14.88
2023-05-10T22:33:41.169Z,13.40
2023-05-10T22:36:09.973Z,14.20
2023-05-10T22:38:38.402Z,14.20
2023-05-10T22:41:07.519Z,13.77
2023-05-10T22:43:35.748Z,11.43
2023-05-10T22:46:04.944Z,16.00
2023-05-10T22:48:34.853Z,19.88
2023-05-10T22:51:03.216Z,16.35
2023-05-10T22:53:31.341Z,18.15
2023-05-10T22:56:00.432Z,15.90
2023-05-10T22:58:29.429Z,13.45
2023-05-10T23:00:57.817Z,14.82
2023-05-10T23:03:26.627Z,14.40
2023-05-10T23:05:55.737Z,11.52
2023-05-10T23:08:25.012Z,11.65
2023-05-10T23:10:54.006Z,11.40
2023-05-10T23:13:22.894Z,8.68
2023-05-10T23:15:51.327Z,10.43
2023-05-10T23:18:20.087Z,8.55
2023-05-10T23:20:48.784Z,14.70
2023-05-10T23:23:17.971Z,10.40
2023-05-10T23:25:46.579Z,14.55
2023-05-10T23:28:15.179Z,11.10
2023-05-10T23:30:44.093Z,12.80
2023-05-10T23:33:14.331Z,13.35
2023-05-10T23:35:42.830Z,14.32
2023-05-10T23:38:11.746Z,13.43
2023-05-10T23:40:39.929Z,14.48
2023-05-10T23:43:08.565Z,13.73
2023-05-10T23:45:37.012Z,14.60
2023-05-10T23:48:05.768Z,15.85
2023-05-10T23:50:34.500Z,15.30
2023-05-10T23:53:02.590Z,18.35
2023-05-10T23:55:31.098Z,18.02
2023-05-10T23:58:00.182Z,14.73
